APG412 RPVE-RPLL
Flight info
| Callsign | APG412 |
|---|---|
| Flight time | 0h 34m |
| Altitude | 22000 |
| Route | MINOR8A MINOR B473 LAIYA LAIYA1A |
| Aircraft | A320/M-SDE3FGHIRWY/LB1 |
Departure
| Time | 2026-04-22 17:45 |
|---|---|
| Airport | Godofredo P. Ramos Airport (RPVE) |
Arrival
| Time | 2026-04-22 18:19 |
|---|---|
| Airport | Ninoy Aquino International Airport (RPLL) |
| Time | Latitude | Longitude | Altitude | Speed | Heading |
|---|---|---|---|---|---|
| 2026-04-22 17:25 | 11.92639 | 121.96303 | 27 ft | 0 kts | 153° |
| 2026-04-22 17:37 | 11.92642 | 121.96301 | 26 ft | 2 kts | 154° |
| 2026-04-22 17:37 | 11.92660 | 121.96294 | 26 ft | 3 kts | 173° |
| 2026-04-22 17:37 | 11.92678 | 121.96295 | 26 ft | 3 kts | 210° |
| 2026-04-22 17:38 | 11.92689 | 121.96304 | 26 ft | 1 kts | 242° |
| 2026-04-22 17:38 | 11.92690 | 121.96306 | 26 ft | 0 kts | 243° |
| 2026-04-22 17:40 | 11.92690 | 121.96305 | 26 ft | 1 kts | 243° |
| 2026-04-22 17:40 | 11.92659 | 121.96244 | 26 ft | 12 kts | 243° |
| 2026-04-22 17:40 | 11.92679 | 121.96183 | 26 ft | 9 kts | 330° |
| 2026-04-22 17:40 | 11.92751 | 121.96147 | 26 ft | 14 kts | 333° |
| 2026-04-22 17:41 | 11.92797 | 121.96075 | 27 ft | 15 kts | 252° |
| 2026-04-22 17:41 | 11.92727 | 121.95937 | 27 ft | 29 kts | 242° |
| 2026-04-22 17:41 | 11.92619 | 121.95723 | 27 ft | 38 kts | 243° |
| 2026-04-22 17:41 | 11.92470 | 121.95425 | 25 ft | 58 kts | 244° |
| 2026-04-22 17:42 | 11.92304 | 121.95094 | 26 ft | 29 kts | 243° |
| 2026-04-22 17:42 | 11.92247 | 121.95001 | 27 ft | 5 kts | 155° |
| 2026-04-22 17:42 | 11.92251 | 121.95009 | 27 ft | 1 kts | 48° |
| 2026-04-22 17:42 | 11.92274 | 121.95034 | 27 ft | 3 kts | 59° |
| 2026-04-22 17:43 | 11.92283 | 121.95051 | 27 ft | 2 kts | 59° |
| 2026-04-22 17:43 | 11.92286 | 121.95056 | 27 ft | 0 kts | 62° |
| 2026-04-22 17:44 | 11.92325 | 121.95138 | 27 ft | 49 kts | 65° |
| 2026-04-22 17:44 | 11.92616 | 121.95717 | 27 ft | 130 kts | 63° |
| 2026-04-22 17:45 | 11.93093 | 121.96696 | 357 ft | 166 kts | 64° |
| 2026-04-22 17:45 | 11.93614 | 121.97759 | 1131 ft | 165 kts | 64° |
| 2026-04-22 17:45 | 11.94141 | 121.98801 | 1716 ft | 170 kts | 63° |
| 2026-04-22 17:45 | 11.94707 | 121.99918 | 2075 ft | 184 kts | 63° |
| 2026-04-22 17:46 | 11.95319 | 122.01127 | 2391 ft | 201 kts | 63° |
| 2026-04-22 17:46 | 11.96085 | 122.02390 | 2694 ft | 220 kts | 50° |
| 2026-04-22 17:46 | 11.97304 | 122.03417 | 3208 ft | 237 kts | 31° |
| 2026-04-22 17:46 | 11.98838 | 122.04197 | 3712 ft | 255 kts | 28° |
| 2026-04-22 17:47 | 12.00476 | 122.05022 | 4303 ft | 269 kts | 28° |
| 2026-04-22 17:47 | 12.02169 | 122.05880 | 5093 ft | 274 kts | 28° |
| 2026-04-22 17:47 | 12.03885 | 122.06751 | 5895 ft | 277 kts | 27° |
| 2026-04-22 17:47 | 12.05625 | 122.07634 | 6690 ft | 281 kts | 27° |
| 2026-04-22 17:48 | 12.06788 | 122.08223 | 7185 ft | 283 kts | 27° |
| 2026-04-22 17:48 | 12.09175 | 122.09428 | 8180 ft | 289 kts | 26° |
| 2026-04-22 17:48 | 12.10994 | 122.10345 | 8922 ft | 293 kts | 25° |
| 2026-04-22 17:48 | 12.12833 | 122.11272 | 9670 ft | 297 kts | 25° |
| 2026-04-22 17:49 | 12.14699 | 122.12217 | 10322 ft | 303 kts | 25° |
| 2026-04-22 17:49 | 12.16633 | 122.13197 | 10687 ft | 319 kts | 26° |
| 2026-04-22 17:49 | 12.18673 | 122.14231 | 11014 ft | 336 kts | 26° |
| 2026-04-22 17:49 | 12.20817 | 122.15318 | 11309 ft | 352 kts | 26° |
| 2026-04-22 17:50 | 12.23062 | 122.16458 | 11615 ft | 366 kts | 26° |
| 2026-04-22 17:50 | 12.24586 | 122.17233 | 11944 ft | 371 kts | 26° |
| 2026-04-22 17:50 | 12.27698 | 122.18816 | 12750 ft | 376 kts | 26° |
| 2026-04-22 17:50 | 12.29254 | 122.19607 | 13154 ft | 378 kts | 26° |
| 2026-04-22 17:51 | 12.32482 | 122.21091 | 13922 ft | 383 kts | 17° |
| 2026-04-22 17:51 | 12.35097 | 122.21606 | 14447 ft | 385 kts | 3° |
| 2026-04-22 17:51 | 12.36873 | 122.21593 | 14782 ft | 387 kts | 354° |
| 2026-04-22 17:51 | 12.39518 | 122.21039 | 15273 ft | 390 kts | 341° |
| 2026-04-22 17:52 | 12.41982 | 122.19871 | 15765 ft | 393 kts | 327° |
| 2026-04-22 17:52 | 12.44264 | 122.18304 | 16224 ft | 397 kts | 326° |
| 2026-04-22 17:52 | 12.46555 | 122.16705 | 16686 ft | 400 kts | 326° |
| 2026-04-22 17:52 | 12.48867 | 122.15094 | 17152 ft | 404 kts | 326° |
| 2026-04-22 17:53 | 12.51197 | 122.13474 | 17609 ft | 407 kts | 326° |
| 2026-04-22 17:53 | 12.53548 | 122.11841 | 18053 ft | 410 kts | 326° |
| 2026-04-22 17:53 | 12.55922 | 122.10194 | 18442 ft | 413 kts | 326° |
| 2026-04-22 17:53 | 12.58307 | 122.08540 | 18838 ft | 415 kts | 326° |
| 2026-04-22 17:54 | 12.60704 | 122.06878 | 19238 ft | 417 kts | 326° |
| 2026-04-22 17:54 | 12.63114 | 122.05202 | 19645 ft | 419 kts | 326° |
| 2026-04-22 17:54 | 12.65530 | 122.03518 | 20046 ft | 421 kts | 326° |
| 2026-04-22 17:54 | 12.67958 | 122.01824 | 20425 ft | 423 kts | 326° |
| 2026-04-22 17:55 | 12.70398 | 122.00126 | 20816 ft | 425 kts | 326° |
| 2026-04-22 17:55 | 12.72849 | 121.98419 | 21196 ft | 427 kts | 326° |
| 2026-04-22 17:55 | 12.75312 | 121.96702 | 21577 ft | 429 kts | 325° |
| 2026-04-22 17:55 | 12.77784 | 121.94982 | 21839 ft | 430 kts | 325° |
| 2026-04-22 17:56 | 12.80259 | 121.93262 | 21899 ft | 430 kts | 325° |
| 2026-04-22 17:56 | 12.82730 | 121.91543 | 21904 ft | 430 kts | 325° |
| 2026-04-22 17:56 | 12.85201 | 121.89821 | 21900 ft | 430 kts | 325° |
| 2026-04-22 17:56 | 12.87671 | 121.88100 | 21905 ft | 430 kts | 325° |
| 2026-04-22 17:57 | 12.90142 | 121.86373 | 21905 ft | 429 kts | 325° |
| 2026-04-22 17:57 | 12.92610 | 121.84651 | 21905 ft | 429 kts | 325° |
| 2026-04-22 17:57 | 12.95076 | 121.82932 | 21903 ft | 428 kts | 325° |
| 2026-04-22 17:57 | 12.97539 | 121.81213 | 21902 ft | 428 kts | 325° |
| 2026-04-22 17:58 | 13.00000 | 121.79494 | 21899 ft | 428 kts | 325° |
| 2026-04-22 17:58 | 13.02463 | 121.77772 | 21907 ft | 428 kts | 325° |
| 2026-04-22 17:58 | 13.04926 | 121.76049 | 21911 ft | 428 kts | 325° |
| 2026-04-22 17:58 | 13.07388 | 121.74330 | 21904 ft | 428 kts | 325° |
| 2026-04-22 17:59 | 13.09847 | 121.72615 | 21902 ft | 428 kts | 325° |
| 2026-04-22 17:59 | 13.12310 | 121.70896 | 21903 ft | 428 kts | 325° |
| 2026-04-22 17:59 | 13.14772 | 121.69176 | 21910 ft | 428 kts | 325° |
| 2026-04-22 17:59 | 13.17229 | 121.67459 | 21902 ft | 428 kts | 325° |
| 2026-04-22 18:00 | 13.18856 | 121.66323 | 21904 ft | 427 kts | 325° |
| 2026-04-22 18:00 | 13.22143 | 121.64025 | 21912 ft | 427 kts | 325° |
| 2026-04-22 18:00 | 13.24596 | 121.62307 | 21907 ft | 427 kts | 325° |
| 2026-04-22 18:00 | 13.27050 | 121.60587 | 21902 ft | 427 kts | 325° |
| 2026-04-22 18:01 | 13.29503 | 121.58870 | 21905 ft | 427 kts | 325° |
| 2026-04-22 18:01 | 13.31959 | 121.57151 | 21831 ft | 431 kts | 325° |
| 2026-04-22 18:01 | 13.34444 | 121.55412 | 21584 ft | 432 kts | 325° |
| 2026-04-22 18:01 | 13.36921 | 121.53675 | 21339 ft | 431 kts | 325° |
| 2026-04-22 18:02 | 13.39392 | 121.51943 | 21098 ft | 429 kts | 325° |
| 2026-04-22 18:02 | 13.41856 | 121.50216 | 20860 ft | 428 kts | 325° |
| 2026-04-22 18:02 | 13.44284 | 121.48516 | 20626 ft | 427 kts | 325° |
| 2026-04-22 18:02 | 13.46769 | 121.46774 | 20394 ft | 426 kts | 325° |
| 2026-04-22 18:03 | 13.49156 | 121.45099 | 20167 ft | 415 kts | 325° |
| 2026-04-22 18:03 | 13.51509 | 121.43449 | 19936 ft | 404 kts | 325° |
| 2026-04-22 18:03 | 13.53798 | 121.41845 | 19708 ft | 393 kts | 325° |
| 2026-04-22 18:03 | 13.56032 | 121.40279 | 19509 ft | 383 kts | 325° |
| 2026-04-22 18:04 | 13.58191 | 121.38755 | 19393 ft | 371 kts | 324° |
| 2026-04-22 18:04 | 13.60261 | 121.37245 | 19278 ft | 359 kts | 324° |
| 2026-04-22 18:04 | 13.62250 | 121.35755 | 19157 ft | 348 kts | 323° |
| 2026-04-22 18:04 | 13.64187 | 121.34291 | 18888 ft | 344 kts | 323° |
| 2026-04-22 18:05 | 13.66109 | 121.32840 | 18556 ft | 342 kts | 323° |
| 2026-04-22 18:05 | 13.68023 | 121.31402 | 18214 ft | 341 kts | 324° |
| 2026-04-22 18:05 | 13.69934 | 121.29969 | 17832 ft | 339 kts | 324° |
| 2026-04-22 18:05 | 13.71836 | 121.28547 | 17477 ft | 337 kts | 324° |
| 2026-04-22 18:06 | 13.73726 | 121.27137 | 17124 ft | 335 kts | 324° |
| 2026-04-22 18:06 | 13.75608 | 121.25732 | 16780 ft | 333 kts | 324° |
| 2026-04-22 18:06 | 13.77473 | 121.24340 | 16453 ft | 331 kts | 324° |
| 2026-04-22 18:06 | 13.79334 | 121.22954 | 16149 ft | 329 kts | 324° |
| 2026-04-22 18:07 | 13.81183 | 121.21578 | 15792 ft | 329 kts | 324° |
| 2026-04-22 18:07 | 13.83048 | 121.20188 | 15347 ft | 332 kts | 324° |
| 2026-04-22 18:07 | 13.84906 | 121.18802 | 15076 ft | 328 kts | 324° |
| 2026-04-22 18:07 | 13.86747 | 121.17430 | 14766 ft | 325 kts | 324° |
| 2026-04-22 18:08 | 13.88561 | 121.16075 | 14200 ft | 322 kts | 324° |
| 2026-04-22 18:08 | 13.90367 | 121.14725 | 13612 ft | 320 kts | 324° |
| 2026-04-22 18:08 | 13.92155 | 121.13389 | 13074 ft | 317 kts | 324° |
| 2026-04-22 18:08 | 13.93945 | 121.12055 | 12695 ft | 317 kts | 325° |
| 2026-04-22 18:09 | 13.95726 | 121.10725 | 12275 ft | 318 kts | 325° |
| 2026-04-22 18:09 | 13.97500 | 121.09397 | 12025 ft | 313 kts | 325° |
| 2026-04-22 18:09 | 13.99243 | 121.08089 | 11739 ft | 309 kts | 325° |
| 2026-04-22 18:09 | 14.00976 | 121.06789 | 11209 ft | 307 kts | 325° |
| 2026-04-22 18:10 | 14.02702 | 121.05498 | 10596 ft | 306 kts | 325° |
| 2026-04-22 18:10 | 14.04409 | 121.04222 | 10137 ft | 302 kts | 326° |
| 2026-04-22 18:10 | 14.06102 | 121.02956 | 9712 ft | 300 kts | 326° |
| 2026-04-22 18:10 | 14.07784 | 121.01696 | 9265 ft | 298 kts | 326° |
| 2026-04-22 18:11 | 14.09457 | 121.00445 | 8856 ft | 296 kts | 325° |
| 2026-04-22 18:11 | 14.11129 | 120.99195 | 8449 ft | 297 kts | 325° |
| 2026-04-22 18:11 | 14.12797 | 120.97949 | 8038 ft | 296 kts | 325° |
| 2026-04-22 18:11 | 14.14457 | 120.96705 | 7733 ft | 292 kts | 325° |
| 2026-04-22 18:12 | 14.16065 | 120.95501 | 7613 ft | 280 kts | 325° |
| 2026-04-22 18:12 | 14.17635 | 120.94384 | 7468 ft | 269 kts | 332° |
| 2026-04-22 18:12 | 14.18716 | 120.93755 | 7211 ft | 270 kts | 332° |
| 2026-04-22 18:12 | 14.20880 | 120.92481 | 6831 ft | 265 kts | 331° |
| 2026-04-22 18:13 | 14.22460 | 120.91544 | 6414 ft | 259 kts | 331° |
| 2026-04-22 18:13 | 14.24027 | 120.90615 | 5799 ft | 260 kts | 331° |
| 2026-04-22 18:13 | 14.25589 | 120.89689 | 5358 ft | 254 kts | 330° |
| 2026-04-22 18:13 | 14.27126 | 120.88969 | 5285 ft | 237 kts | 347° |
| 2026-04-22 18:14 | 14.28734 | 120.88807 | 5081 ft | 232 kts | 6° |
| 2026-04-22 18:14 | 14.30324 | 120.89111 | 4749 ft | 234 kts | 12° |
| 2026-04-22 18:14 | 14.31921 | 120.89463 | 4413 ft | 235 kts | 12° |
| 2026-04-22 18:14 | 14.33528 | 120.89815 | 4095 ft | 236 kts | 13° |
| 2026-04-22 18:15 | 14.35121 | 120.90161 | 3770 ft | 231 kts | 13° |
| 2026-04-22 18:15 | 14.36670 | 120.90498 | 3466 ft | 225 kts | 13° |
| 2026-04-22 18:15 | 14.38168 | 120.90821 | 3216 ft | 215 kts | 13° |
| 2026-04-22 18:15 | 14.39599 | 120.91127 | 2908 ft | 204 kts | 13° |
| 2026-04-22 18:16 | 14.40944 | 120.91416 | 2634 ft | 192 kts | 13° |
| 2026-04-22 18:16 | 14.42214 | 120.91690 | 2384 ft | 181 kts | 13° |
| 2026-04-22 18:16 | 14.43407 | 120.91947 | 2147 ft | 170 kts | 14° |
| 2026-04-22 18:16 | 14.44506 | 120.92203 | 1967 ft | 154 kts | 19° |
| 2026-04-22 18:17 | 14.45449 | 120.92656 | 1709 ft | 148 kts | 38° |
| 2026-04-22 18:17 | 14.46154 | 120.93408 | 1484 ft | 145 kts | 56° |
| 2026-04-22 18:17 | 14.46646 | 120.94308 | 1309 ft | 144 kts | 63° |
| 2026-04-22 18:17 | 14.47140 | 120.95211 | 1167 ft | 145 kts | 62° |
| 2026-04-22 18:18 | 14.47638 | 120.96117 | 985 ft | 145 kts | 62° |
| 2026-04-22 18:18 | 14.48132 | 120.97025 | 747 ft | 143 kts | 62° |
| 2026-04-22 18:18 | 14.48628 | 120.97920 | 591 ft | 143 kts | 61° |
| 2026-04-22 18:18 | 14.49118 | 120.98799 | 367 ft | 143 kts | 59° |
| 2026-04-22 18:19 | 14.49612 | 120.99677 | 207 ft | 141 kts | 61° |
| 2026-04-22 18:19 | 14.50092 | 121.00557 | 72 ft | 137 kts | 60° |
| 2026-04-22 18:19 | 14.50448 | 121.01199 | 60 ft | 54 kts | 60° |
| 2026-04-22 18:19 | 14.50618 | 121.01504 | 66 ft | 46 kts | 61° |
| 2026-04-22 18:20 | 14.50723 | 121.01676 | 64 ft | 27 kts | 41° |
| 2026-04-22 18:20 | 14.50840 | 121.01775 | 66 ft | 15 kts | 36° |
| 2026-04-22 18:20 | 14.50901 | 121.01778 | 64 ft | 8 kts | 323° |
| 2026-04-22 18:20 | 14.50936 | 121.01743 | 62 ft | 6 kts | 313° |
| 2026-04-22 18:21 | 14.50957 | 121.01691 | 60 ft | 15 kts | 268° |
| 2026-04-22 18:21 | 14.50880 | 121.01549 | 66 ft | 31 kts | 240° |
| 2026-04-22 18:21 | 14.50795 | 121.01383 | 63 ft | 11 kts | 280° |
| 2026-04-22 18:21 | 14.50837 | 121.01352 | 66 ft | 7 kts | 332° |
| 2026-04-22 18:22 | 14.50860 | 121.01338 | 65 ft | 2 kts | 329° |
| 2026-04-22 18:22 | 14.50861 | 121.01338 | 65 ft | 0 kts | 329° |